Time;durP1;ratioP1;P1;durP2;ratioP2;P2;SDS_P1;SDS_P2;PMS_P1;PMS_P2;Temp;Humidity;BMP_temperature;BMP_pressure;BME280_temperature;BME280_humidity;BME280_pressure;Samples;Min_cycle;Max_cycle;Signal;HPM_P1;HPM_P2
2022/11/05 00:17:00;;;;;;;45.03;19.35;;;;;;;9.60;84.50;98485.63;1697730;83;21196;-80
2022/11/05 00:19:27;;;;;;;41.55;19.35;;;;;;;9.61;84.10;98490.78;1695914;83;21079;-79
2022/11/05 00:27:27;;;;;;;45.85;18.23;;;;;;;9.65;84.21;98498.00;1688015;83;21043;-81
2022/11/05 00:29:55;;;;;;;44.98;20.20;;;;;;;9.64;83.55;98491.97;1687786;85;21048;-81
2022/11/05 00:32:23;;;;;;;43.65;18.35;;;;;;;9.61;83.98;98483.00;1702283;83;21016;-80
2022/11/05 00:34:51;;;;;;;45.60;19.30;;;;;;;9.58;83.91;98484.37;1688328;83;21340;-79
2022/11/05 00:37:18;;;;;;;36.35;17.30;;;;;;;9.58;84.11;98488.27;1687596;85;22266;-80
2022/11/05 00:39:46;;;;;;;49.18;19.10;;;;;;;9.63;83.67;98486.39;1689926;83;21120;-79
2022/11/05 00:45:00;;;;;;;39.65;19.20;;;;;;;9.59;84.06;98495.59;1693530;83;21011;-82
2022/11/05 00:50:17;;;;;;;41.33;18.00;;;;;;;9.55;83.82;98490.52;1696046;82;21027;-83
2022/11/05 00:52:59;;;;;;;40.90;19.37;;;;;;;9.57;84.24;98483.99;1689630;82;21083;-81
2022/11/05 00:55:42;;;;;;;41.85;18.45;;;;;;;9.59;84.20;98483.49;1692807;83;20984;-80
2022/11/05 00:58:18;;;;;;;39.85;17.32;;;;;;;9.62;84.38;98490.33;1695798;83;21015;-79
2022/11/05 01:00:52;;;;;;;46.30;17.67;;;;;;;9.64;84.11;98483.34;1688757;83;21481;-80
2022/11/05 01:03:25;;;;;;;38.67;16.80;;;;;;;9.68;84.25;98488.38;1708268;83;21079;-80
2022/11/05 01:06:00;;;;;;;39.27;17.82;;;;;;;9.73;84.20;98484.36;1697263;83;21020;-84
2022/11/05 01:08:28;;;;;;;38.05;17.37;;;;;;;9.76;84.11;98481.20;1682856;84;21040;-79
2022/11/05 01:10:58;;;;;;;44.48;18.42;;;;;;;9.82;83.81;98468.94;1680717;83;21044;-80
2022/11/05 01:13:28;;;;;;;38.15;16.85;;;;;;;9.81;83.96;98464.20;1689594;84;21086;-80
2022/11/05 01:15:56;;;;;;;48.95;18.37;;;;;;;9.85;83.66;98458.01;1700701;83;21055;-80
2022/11/05 01:18:24;;;;;;;44.35;18.37;;;;;;;9.89;83.75;98467.39;1689510;85;21031;-79
2022/11/05 01:20:52;;;;;;;41.75;17.65;;;;;;;9.94;83.40;98467.23;1702712;83;21036;-80
2022/11/05 01:23:20;;;;;;;46.20;16.67;;;;;;;9.92;83.44;98453.45;1689434;84;21039;-80
2022/11/05 01:25:47;;;;;;;45.28;18.42;;;;;;;9.92;83.54;98453.00;1690916;83;22187;-79
2022/11/05 01:28:15;;;;;;;38.88;17.48;;;;;;;9.92;83.43;98444.37;1694568;83;21075;-80
2022/11/05 01:30:42;;;;;;;40.88;17.92;;;;;;;9.96;83.53;98452.45;1703135;82;21063;-79
2022/11/05 01:33:10;;;;;;;42.53;18.02;;;;;;;10.02;83.63;98444.91;1696421;83;21027;-80
2022/11/05 01:35:38;;;;;;;41.45;19.27;;;;;;;10.08;83.50;98453.80;1717604;82;21055;-79
2022/11/05 01:38:06;;;;;;;43.40;18.12;;;;;;;10.08;83.24;98452.50;1690491;82;21036;-79
2022/11/05 01:40:33;;;;;;;40.95;19.30;;;;;;;10.05;83.27;98446.13;1707297;82;21039;-80
2022/11/05 01:43:01;;;;;;;48.35;17.90;;;;;;;10.04;83.37;98438.77;1690653;83;21051;-80
2022/11/05 01:45:29;;;;;;;42.88;18.55;;;;;;;10.08;83.30;98439.05;1696170;83;21075;-80
2022/11/05 01:48:14;;;;;;;37.93;17.02;;;;;;;10.10;83.24;98433.81;1697579;83;21531;-79
2022/11/05 01:51:04;;;;;;;44.15;18.05;;;;;;;10.12;83.30;98441.11;1694882;83;21012;-79
2022/11/05 01:53:58;;;;;;;39.80;17.45;;;;;;;10.12;83.21;98435.91;1696774;82;21982;-79
2022/11/05 01:56:48;;;;;;;53.15;20.00;;;;;;;10.12;83.09;98432.86;1677462;85;21583;-80
2022/11/05 01:59:24;;;;;;;41.18;18.40;;;;;;;10.15;83.43;98428.87;1633410;85;21071;-79
2022/11/05 02:01:53;;;;;;;45.12;18.92;;;;;;;10.19;82.99;98440.47;1715910;82;21772;-83
2022/11/05 02:04:43;;;;;;;37.08;17.23;;;;;;;10.20;83.08;98446.05;1726996;82;21538;-81
2022/11/05 02:07:13;;;;;;;41.98;18.98;;;;;;;10.18;82.91;98459.08;1717868;83;22198;-80
2022/11/05 02:10:03;;;;;;;41.53;18.98;;;;;;;10.10;83.14;98451.54;1696612;84;21020;-80
2022/11/05 02:12:32;;;;;;;46.73;18.62;;;;;;;10.09;83.01;98447.72;1705665;84;21655;-79
2022/11/05 02:15:00;;;;;;;40.43;18.30;;;;;;;10.05;83.08;98444.38;1685048;84;21091;-79
2022/11/05 02:18:05;;;;;;;43.98;19.15;;;;;;;10.02;83.17;98444.91;1685530;85;21041;-80
2022/11/05 02:20:56;;;;;;;40.28;18.70;;;;;;;10.02;83.14;98450.11;1699337;84;21563;-80
2022/11/05 02:24:10;;;;;;;45.98;19.95;;;;;;;10.01;83.53;98447.97;1697688;84;21036;-79
2022/11/05 02:27:01;;;;;;;39.13;18.30;;;;;;;10.05;83.60;98453.45;1672375;85;21064;-80
2022/11/05 02:29:54;;;;;;;41.88;18.42;;;;;;;10.12;83.28;98454.09;1693274;84;21045;-81
2022/11/05 02:33:03;;;;;;;46.37;18.80;;;;;;;10.12;83.21;98451.03;1691727;84;21064;-80
2022/11/05 02:36:16;;;;;;;47.62;18.17;;;;;;;10.16;83.41;98450.49;1694558;83;21068;-79
2022/11/05 02:39:12;;;;;;;45.23;17.82;;;;;;;10.23;83.48;98437.70;1685411;85;21007;-79
2022/11/05 02:41:59;;;;;;;47.48;19.15;;;;;;;10.21;83.46;98438.66;1667127;84;21567;-80
2022/11/05 02:44:35;;;;;;;47.50;20.32;;;;;;;10.23;83.56;98443.36;1697394;84;21054;-80
2022/11/05 02:47:44;;;;;;;46.28;18.27;;;;;;;10.25;83.97;98441.55;1675330;85;21111;-79
2022/11/05 02:50:34;;;;;;;43.68;17.95;;;;;;;10.27;83.59;98430.66;1687200;84;21028;-79
2022/11/05 02:53:09;;;;;;;40.50;19.37;;;;;;;10.22;83.98;98431.25;1685627;84;21080;-79
2022/11/05 02:55:55;;;;;;;45.55;18.10;;;;;;;10.24;84.07;98425.09;1704494;84;21579;-79
2022/11/05 02:58:23;;;;;;;41.90;17.87;;;;;;;10.25;83.85;98424.67;1677060;84;21055;-79
2022/11/05 03:00:53;;;;;;;42.43;19.60;;;;;;;10.24;83.89;98422.50;1704937;84;21396;-80
2022/11/05 03:03:36;;;;;;;42.25;18.87;;;;;;;10.28;84.03;98418.05;1685374;84;21035;-79
2022/11/05 03:06:42;;;;;;;46.48;20.27;;;;;;;10.27;83.84;98413.77;1662963;85;21066;-81
2022/11/05 03:09:47;;;;;;;47.40;20.17;;;;;;;10.26;83.82;98412.91;1737425;82;21031;-80
2022/11/05 03:12:34;;;;;;;;;;;;;;;10.19;83.71;98418.39;1738576;82;21103;-80
2022/11/05 03:15:16;;;;;;;46.98;19.45;;;;;;;10.06;84.45;98417.94;1725116;82;20132;-80
2022/11/05 03:18:34;;;;;;;47.75;19.25;;;;;;;10.02;84.07;98426.73;1752170;82;21460;-78
2022/11/05 03:21:10;;;;;;;43.55;19.37;;;;;;;9.99;84.20;98439.38;1753164;81;21097;-79
2022/11/05 03:23:55;;;;;;;44.85;20.08;;;;;;;10.01;83.77;98446.67;1720520;82;22437;-79
2022/11/05 03:26:39;;;;;;;45.08;19.98;;;;;;;9.96;83.99;98454.59;1733056;82;21035;-80
2022/11/05 03:29:12;;;;;;;41.05;17.98;;;;;;;9.94;84.24;98456.84;1735261;82;21047;-80
2022/11/05 03:31:43;;;;;;;42.20;19.10;;;;;;;9.93;83.96;98456.01;1750854;82;21075;-79
2022/11/05 03:34:13;;;;;;;40.10;18.07;;;;;;;9.90;83.98;98450.06;1735138;82;21169;-80
2022/11/05 03:36:45;;;;;;;42.70;19.00;;;;;;;9.89;84.60;98445.78;1719980;82;21015;-79
2022/11/05 03:39:17;;;;;;;35.35;17.52;;;;;;;9.90;85.00;98451.36;1725656;81;21495;-79
2022/11/05 03:41:49;;;;;;;42.10;17.87;;;;;;;9.94;84.96;98450.36;1744378;82;21059;-81
2022/11/05 03:44:22;;;;;;;39.38;16.97;;;;;;;9.99;85.13;98458.86;1723084;83;21051;-80
2022/11/05 03:46:51;;;;;;;39.42;16.27;;;;;;;10.04;84.48;98465.19;1744779;82;21508;-80
2022/11/05 03:49:26;;;;;;;42.08;18.02;;;;;;;10.03;85.21;98460.91;1724272;83;21491;-80
2022/11/05 03:52:18;;;;;;;36.95;17.35;;;;;;;10.01;84.72;98446.67;1748851;82;20983;-79
2022/11/05 03:54:46;;;;;;;38.17;16.40;;;;;;;10.02;85.03;98446.22;1729110;82;21046;-79
2022/11/05 03:57:28;;;;;;;37.23;16.93;;;;;;;10.02;85.51;98448.81;1722934;83;21000;-80
2022/11/05 03:59:56;;;;;;;40.90;17.75;;;;;;;10.04;85.12;98447.85;1725607;82;21051;-80
2022/11/05 04:02:26;;;;;;;47.45;18.57;;;;;;;10.10;85.27;98452.00;1728696;82;21086;-80
2022/11/05 04:04:54;;;;;;;43.60;19.73;;;;;;;10.11;84.92;98453.71;1719743;82;21570;-79
2022/11/05 04:18:26;;;;;;;38.28;18.87;;;;;;;9.96;85.49;98466.73;1715287;83;21071;-80
2022/11/05 04:26:26;;;;;;;47.25;20.23;;;;;;;9.79;85.46;98468.59;1685696;85;21512;-84
2022/11/05 04:31:40;;;;;;;51.83;20.00;;;;;;;9.72;85.75;98470.52;1698635;83;21003;-80
2022/11/05 04:34:07;;;;;;;47.00;19.17;;;;;;;9.70;85.64;98456.73;1702665;83;21044;-80
2022/11/05 04:36:35;;;;;;;45.90;21.23;;;;;;;9.71;85.88;98455.85;1695842;83;21500;-80
2022/11/05 04:39:02;;;;;;;47.38;19.73;;;;;;;9.74;85.39;98447.95;1698757;84;21035;-79
2022/11/05 04:41:30;;;;;;;44.00;20.00;;;;;;;9.67;85.92;98444.30;1693905;83;20992;-79
2022/11/05 04:43:58;;;;;;;39.98;19.75;;;;;;;9.67;85.90;98440.41;1706112;83;21039;-79
2022/11/05 04:46:25;;;;;;;47.38;20.75;;;;;;;9.67;85.66;98444.30;1694503;83;22092;-79
2022/11/05 04:48:53;;;;;;;51.42;21.30;;;;;;;9.71;85.58;98460.20;1684664;85;21016;-79
2022/11/05 04:51:21;;;;;;;44.30;19.30;;;;;;;9.68;85.42;98452.05;1685417;84;21005;-80
2022/11/05 04:53:48;;;;;;;49.65;20.50;;;;;;;9.65;85.80;98460.37;1685269;84;21024;-81
2022/11/05 04:56:20;;;;;;;46.05;19.95;;;;;;;9.64;85.58;98456.94;1698425;84;21013;-80
2022/11/05 04:58:48;;;;;;;48.98;19.77;;;;;;;9.64;85.82;98455.63;1684257;85;21036;-81
2022/11/05 05:01:19;;;;;;;41.98;19.75;;;;;;;9.63;85.82;98465.63;1685369;84;21056;-80
2022/11/05 05:03:49;;;;;;;44.70;19.50;;;;;;;9.63;85.93;98453.08;1684294;84;21339;-80
2022/11/05 05:06:17;;;;;;;45.52;19.60;;;;;;;9.61;86.27;98460.06;1698033;84;21079;-79
2022/11/05 05:08:50;;;;;;;38.05;18.10;;;;;;;9.61;86.04;98464.83;1689650;83;21075;-81
2022/11/05 05:11:20;;;;;;;43.52;20.40;;;;;;;9.64;85.71;98473.80;1698125;84;21039;-79
2022/11/05 05:13:48;;;;;;;46.18;19.57;;;;;;;9.64;86.12;98483.34;1689969;83;22135;-80
2022/11/05 05:16:23;;;;;;;51.40;20.68;;;;;;;9.70;85.98;98489.19;1703017;83;21064;-80
2022/11/05 05:18:52;;;;;;;48.40;19.98;;;;;;;9.71;85.98;98485.70;1685829;84;21107;-82
2022/11/05 05:21:37;;;;;;;41.28;19.20;;;;;;;9.73;86.14;98486.50;1689843;83;21127;-79
2022/11/05 05:24:10;;;;;;;46.18;21.02;;;;;;;9.74;85.67;98492.08;1688112;84;21047;-82
2022/11/05 05:26:40;;;;;;;;;;;;;;;9.73;86.00;98500.78;1688148;84;21308;-80
2022/11/05 05:29:09;;;;;;;46.83;18.17;;;;;;;9.73;86.04;98505.97;1684439;84;20476;-82
2022/11/05 05:31:38;;;;;;;43.58;18.87;;;;;;;9.73;86.18;98504.67;1685626;84;21035;-79
2022/11/05 05:34:07;;;;;;;44.18;18.90;;;;;;;9.75;86.00;98500.28;1686153;84;21040;-79
2022/11/05 05:36:34;;;;;;;48.45;20.30;;;;;;;9.76;86.35;98499.37;1694391;84;22164;-79
2022/11/05 05:39:24;;;;;;;50.03;20.32;;;;;;;9.82;86.52;98506.58;1700996;83;21083;-80
2022/11/05 05:41:51;;;;;;;51.55;19.95;;;;;;;9.85;86.42;98494.36;1689917;85;21023;-79
2022/11/05 05:44:19;;;;;;;48.50;20.95;;;;;;;9.86;86.35;98499.09;1678416;84;21051;-80
2022/11/05 05:46:46;;;;;;;52.75;22.50;;;;;;;9.87;86.33;98500.34;1674875;85;21031;-79
2022/11/05 05:49:14;;;;;;;47.60;23.10;;;;;;;9.89;85.92;98506.34;1664700;86;21054;-80
2022/11/05 05:51:42;;;;;;;52.25;20.50;;;;;;;9.87;86.10;98511.19;1666170;85;21051;-79
2022/11/05 05:54:10;;;;;;;46.65;20.45;;;;;;;9.89;86.31;98510.23;1682496;85;21546;-78
2022/11/05 05:56:38;;;;;;;47.05;20.48;;;;;;;9.92;86.68;98503.62;1663759;85;21114;-78
2022/11/05 05:59:06;;;;;;;43.95;18.85;;;;;;;9.96;86.64;98517.38;1692427;85;21063;-79
2022/11/05 06:01:34;;;;;;;53.38;21.68;;;;;;;10.01;86.67;98525.88;1668120;85;21011;-81
2022/11/05 06:04:02;;;;;;;44.00;20.55;;;;;;;10.07;86.61;98532.63;1670959;85;21011;-79
2022/11/05 06:06:29;;;;;;;46.70;20.35;;;;;;;10.12;86.21;98541.11;1676370;85;21082;-79
2022/11/05 06:08:57;;;;;;;60.98;20.80;;;;;;;10.13;86.27;98531.13;1655483;86;21676;-79
2022/11/05 06:11:25;;;;;;;45.83;20.55;;;;;;;10.17;86.43;98527.53;1674928;85;21086;-79
2022/11/05 06:13:52;;;;;;;48.10;20.85;;;;;;;10.23;86.27;98515.64;1664814;85;21061;-80
2022/11/05 06:16:20;;;;;;;44.15;18.60;;;;;;;10.28;86.43;98520.22;1664694;86;21086;-79
2022/11/05 06:18:48;;;;;;;48.58;21.15;;;;;;;10.33;86.15;98532.65;1666769;85;21666;-78
2022/11/05 06:21:17;;;;;;;45.55;19.40;;;;;;;10.40;86.10;98541.08;1665089;85;21062;-78
2022/11/05 06:23:47;;;;;;;51.48;20.77;;;;;;;10.45;85.96;98537.89;1682452;85;21031;-81
2022/11/05 06:26:17;;;;;;;43.58;21.30;;;;;;;10.47;86.04;98532.19;1686059;85;21106;-79
2022/11/05 06:28:45;;;;;;;38.75;19.55;;;;;;;10.51;85.98;98539.44;1665050;85;21058;-79
2022/11/05 06:31:14;;;;;;;50.73;19.50;;;;;;;10.60;85.96;98541.70;1664480;86;21099;-79
2022/11/05 06:33:41;;;;;;;46.60;20.48;;;;;;;10.65;86.00;98549.38;1667454;85;21031;-80
2022/11/05 06:36:14;;;;;;;39.40;19.25;;;;;;;10.72;86.14;98553.02;1682778;85;21102;-79
2022/11/05 06:38:41;;;;;;;48.95;20.97;;;;;;;10.82;86.25;98565.22;1669352;85;21067;-79
2022/11/05 06:41:09;;;;;;;42.33;19.90;;;;;;;10.93;86.35;98568.30;1655898;85;21099;-79
2022/11/05 06:43:37;;;;;;;43.30;20.62;;;;;;;11.02;86.33;98557.17;1630821;87;21606;-79
2022/11/05 06:46:06;;;;;;;46.13;21.00;;;;;;;11.13;86.24;98565.45;1630172;87;21048;-78
2022/11/05 06:48:33;;;;;;;36.45;19.32;;;;;;;11.20;85.91;98563.47;1634473;86;21024;-79
2022/11/05 06:51:02;;;;;;;44.23;21.97;;;;;;;11.25;85.88;98565.01;1640051;87;21368;-80
2022/11/05 06:53:30;;;;;;;54.27;22.65;;;;;;;11.29;85.52;98561.85;1640480;87;21067;-79
2022/11/05 06:56:04;;;;;;;54.13;23.60;;;;;;;11.29;84.94;98561.39;1645231;87;21123;-79
2022/11/05 06:58:32;;;;;;;53.90;22.22;;;;;;;11.20;84.80;98557.84;1640521;86;21582;-79
2022/11/05 07:01:06;;;;;;;51.83;20.12;;;;;;;11.19;84.81;98546.18;1637182;87;21546;-79
2022/11/05 07:03:35;;;;;;;39.40;20.05;;;;;;;11.23;84.97;98541.26;1645440;87;21568;-79
2022/11/05 07:06:05;;;;;;;52.90;21.60;;;;;;;11.29;84.76;98543.63;1628874;87;21512;-78
2022/11/05 07:08:34;;;;;;;36.38;18.48;;;;;;;11.32;84.09;98543.08;1628728;88;21016;-80
2022/11/05 07:11:03;;;;;;;47.50;18.77;;;;;;;11.35;83.88;98550.75;1622852;87;21051;-80
2022/11/05 07:13:31;;;;;;;41.88;18.82;;;;;;;11.39;83.88;98541.08;1634785;87;21059;-80
2022/11/05 07:15:59;;;;;;;42.48;19.67;;;;;;;11.42;83.82;98542.28;1633222;87;21709;-79
2022/11/05 07:18:26;;;;;;;41.48;20.23;;;;;;;11.49;83.79;98555.45;1628361;88;21052;-80
2022/11/05 07:20:54;;;;;;;45.00;20.20;;;;;;;11.56;83.77;98557.39;1629159;87;21088;-79
2022/11/05 07:23:21;;;;;;;44.70;20.08;;;;;;;11.65;83.88;98548.37;1642042;87;21100;-80
2022/11/05 07:25:49;;;;;;;44.08;19.17;;;;;;;11.72;83.16;98543.33;1632198;87;21555;-79
2022/11/05 07:28:17;;;;;;;43.78;20.45;;;;;;;11.79;83.25;98548.67;1628625;87;21126;-79
2022/11/05 07:30:47;;;;;;;45.50;19.57;;;;;;;11.84;82.59;98545.92;1642926;87;21024;-80
2022/11/05 07:33:14;;;;;;;38.15;18.60;;;;;;;11.89;82.90;98541.39;1655777;87;22303;-79
2022/11/05 07:35:42;;;;;;;41.48;17.02;;;;;;;11.97;82.46;98546.30;1639423;87;21031;-79
2022/11/05 07:38:10;;;;;;;36.85;17.10;;;;;;;11.99;81.95;98545.32;1631931;87;21060;-80
2022/11/05 07:40:38;;;;;;;41.53;18.60;;;;;;;12.04;81.58;98547.30;1642318;85;21087;-82
2022/11/05 07:43:05;;;;;;;41.28;18.12;;;;;;;12.06;81.77;98550.70;1628002;87;21040;-84
2022/11/05 07:45:33;;;;;;;35.65;16.85;;;;;;;12.05;81.45;98546.38;1627770;88;21547;-83
2022/11/05 07:48:03;;;;;;;39.30;18.12;;;;;;;12.07;80.90;98547.16;1632316;87;21035;-81
2022/11/05 07:50:36;;;;;;;34.92;17.00;;;;;;;12.13;81.43;98548.22;1648812;87;21111;-79
2022/11/05 07:53:08;;;;;;;38.75;16.95;;;;;;;12.18;81.19;98549.36;1640191;87;21008;-79
2022/11/05 07:55:39;;;;;;;31.45;16.27;;;;;;;12.22;81.02;98553.53;1629306;87;21088;-79
2022/11/05 07:58:06;;;;;;;37.88;16.73;;;;;;;12.31;80.85;98551.00;1628248;88;21060;-80
2022/11/05 08:00:34;;;;;;;40.78;16.90;;;;;;;12.33;80.04;98551.35;1628166;88;21028;-80
2022/11/05 08:03:09;;;;;;;45.20;18.20;;;;;;;12.31;79.85;98551.88;1638025;87;21043;-80
2022/11/05 08:05:42;;;;;;;40.75;18.85;;;;;;;12.40;79.87;98553.70;1630054;87;21063;-79
2022/11/05 08:08:13;;;;;;;35.97;17.07;;;;;;;12.47;79.42;98556.00;1640382;87;21023;-83
2022/11/05 08:10:41;;;;;;;45.05;18.20;;;;;;;12.57;80.26;98544.70;1647341;87;21012;-79
2022/11/05 08:13:10;;;;;;;31.70;16.55;;;;;;;12.64;79.97;98548.77;1630049;87;21658;-79
2022/11/05 08:15:38;;;;;;;39.23;18.10;;;;;;;12.74;79.68;98547.92;1649848;87;21583;-79
2022/11/05 08:18:13;;;;;;;41.63;17.90;;;;;;;12.83;78.93;98546.66;1639318;87;21040;-79
2022/11/05 08:20:43;;;;;;;42.70;19.45;;;;;;;12.86;79.65;98550.00;1630381;87;21055;-79
2022/11/05 08:23:10;;;;;;;43.63;19.10;;;;;;;12.93;79.39;98548.83;1642854;87;22405;-83
2022/11/05 08:25:38;;;;;;;47.05;19.98;;;;;;;12.95;79.28;98547.43;1647265;87;21032;-80
2022/11/05 08:28:10;;;;;;;40.85;18.37;;;;;;;13.03;78.86;98553.63;1641132;86;21068;-81
2022/11/05 08:30:38;;;;;;;40.35;18.87;;;;;;;13.12;78.66;98542.80;1628294;88;21040;-80
2022/11/05 08:33:09;;;;;;;45.15;18.50;;;;;;;13.17;78.30;98544.76;1641338;87;21071;-79
2022/11/05 08:35:38;;;;;;;41.58;19.07;;;;;;;13.26;77.57;98542.18;1628322;87;21028;-80
2022/11/05 08:38:09;;;;;;;42.50;17.85;;;;;;;13.33;77.28;98548.40;1642137;87;21108;-80
2022/11/05 08:40:36;;;;;;;47.55;19.95;;;;;;;13.39;78.01;98545.11;1631028;86;21188;-79
2022/11/05 08:43:06;;;;;;;45.17;19.00;;;;;;;13.41;76.90;98540.66;1609851;87;21093;-80
2022/11/05 08:45:35;;;;;;;53.33;19.80;;;;;;;13.42;77.18;98530.16;1595500;89;21025;-79
2022/11/05 08:48:13;;;;;;;37.80;17.12;;;;;;;13.43;77.10;98509.67;1601996;88;21712;-79
2022/11/05 08:50:43;;;;;;;34.38;17.40;;;;;;;13.40;76.73;98514.17;1585805;89;21609;-80
2022/11/05 08:53:11;;;;;;;43.20;16.70;;;;;;;13.41;76.37;98516.73;1602052;89;21133;-79
2022/11/05 08:55:39;;;;;;;46.13;18.50;;;;;;;13.43;77.02;98520.55;1602228;88;21041;-79
2022/11/05 08:58:14;;;;;;;39.10;18.35;;;;;;;13.45;76.16;98514.36;1602103;89;21088;-79
2022/11/05 09:00:45;;;;;;;40.17;18.42;;;;;;;13.46;75.97;98518.65;1600750;88;21065;-80
2022/11/05 09:03:13;;;;;;;42.30;18.42;;;;;;;13.55;76.45;98521.31;1602348;89;21070;-79
2022/11/05 09:05:41;;;;;;;34.67;17.02;;;;;;;13.55;75.91;98525.23;1610202;87;21591;-80
2022/11/05 09:08:13;;;;;;;41.13;18.42;;;;;;;13.60;75.98;98525.01;1609107;87;22244;-79
2022/11/05 09:10:41;;;;;;;42.98;17.05;;;;;;;13.64;75.30;98526.55;1610307;87;21035;-80
2022/11/05 09:13:09;;;;;;;41.80;17.87;;;;;;;13.69;75.95;98521.98;1610826;87;21090;-79
2022/11/05 09:15:37;;;;;;;36.60;15.88;;;;;;;13.69;75.17;98523.28;1610878;87;21098;-79
2022/11/05 09:18:05;;;;;;;34.10;16.48;;;;;;;13.76;75.15;98531.20;1610847;87;21117;-80
2022/11/05 09:20:35;;;;;;;30.68;15.48;;;;;;;13.76;74.92;98522.52;1610838;87;21560;-79
2022/11/05 09:23:03;;;;;;;34.85;15.85;;;;;;;13.84;74.65;98528.23;1610747;87;21148;-80
2022/11/05 09:25:32;;;;;;;34.53;15.88;;;;;;;13.84;74.42;98520.39;1610507;87;21589;-79
2022/11/05 09:28:15;;;;;;;36.17;15.72;;;;;;;13.92;73.95;98520.40;1610354;88;21018;-79
2022/11/05 09:30:50;;;;;;;33.70;15.45;;;;;;;13.96;73.15;98528.11;1610315;87;21068;-79
2022/11/05 09:33:21;;;;;;;36.03;17.48;;;;;;;14.02;72.88;98529.12;1611065;89;21116;-79
2022/11/05 09:35:50;;;;;;;42.10;17.92;;;;;;;14.06;72.20;98528.89;1611637;89;21038;-83
2022/11/05 09:38:18;;;;;;;36.08;16.37;;;;;;;14.14;73.33;98533.75;1610809;88;21053;-81
2022/11/05 09:41:03;;;;;;;30.90;15.05;;;;;;;14.23;72.17;98542.92;1615065;86;21054;-82
2022/11/05 09:43:43;;;;;;;36.42;15.95;;;;;;;14.30;72.63;98536.02;1627988;87;21095;-79
2022/11/05 09:46:19;;;;;;;33.35;15.98;;;;;;;14.40;72.46;98538.16;1614989;88;21596;-80
2022/11/05 09:48:55;;;;;;;30.02;15.18;;;;;;;14.40;71.91;98538.16;1601380;89;21096;-80
2022/11/05 09:51:22;;;;;;;38.38;16.40;;;;;;;14.43;70.80;98528.87;1601669;89;21091;-80
2022/11/05 09:53:52;;;;;;;32.60;16.67;;;;;;;14.48;72.23;98533.39;1603379;88;21079;-79
2022/11/05 09:56:24;;;;;;;32.85;15.63;;;;;;;14.57;71.57;98534.75;1603884;89;21011;-80
2022/11/05 09:59:18;;;;;;;33.95;16.73;;;;;;;14.61;71.67;98532.36;1605071;88;21079;-79
2022/11/05 10:01:46;;;;;;;;;;;;;;;14.65;71.74;98537.83;1606175;89;21015;-81
2022/11/05 10:04:21;;;;;;;35.33;15.98;;;;;;;14.76;70.76;98534.18;1607545;88;20138;-81
2022/11/05 10:06:56;;;;;;;32.03;15.58;;;;;;;14.81;70.01;98533.49;1601704;89;21099;-80
2022/11/05 10:09:37;;;;;;;39.48;18.45;;;;;;;14.89;70.62;98540.48;1603468;88;21046;-80
2022/11/05 10:12:29;;;;;;;46.08;18.55;;;;;;;14.94;70.26;98531.55;1602413;89;21050;-80
2022/11/05 10:15:08;;;;;;;32.73;15.98;;;;;;;14.95;69.53;98540.63;1610419;88;21087;-79
2022/11/05 10:17:40;;;;;;;33.75;15.60;;;;;;;14.98;69.84;98533.08;1620824;88;21554;-79
2022/11/05 10:20:30;;;;;;;34.75;16.82;;;;;;;15.00;68.59;98532.09;1605152;89;21058;-80
2022/11/05 10:23:14;;;;;;;36.83;16.07;;;;;;;15.03;68.09;98537.16;1604647;89;21118;-80
2022/11/05 10:25:56;;;;;;;34.20;16.12;;;;;;;15.06;67.70;98541.38;1660711;85;21066;-83
2022/11/05 10:28:27;;;;;;;31.82;15.20;;;;;;;15.07;68.75;98538.69;1676563;85;21559;-80
2022/11/05 10:31:08;;;;;;;39.55;16.30;;;;;;;15.06;68.41;98529.59;1624900;87;20997;-80
2022/11/05 10:33:47;;;;;;;32.17;17.10;;;;;;;15.11;69.67;98532.36;1656407;86;21059;-82
2022/11/05 10:36:25;;;;;;;39.92;17.60;;;;;;;15.21;69.12;98534.03;1625659;88;21143;-81
2022/11/05 10:39:16;;;;;;;36.17;16.12;;;;;;;15.29;67.25;98533.16;1680024;85;21549;-80
2022/11/05 10:42:07;;;;;;;27.70;14.10;;;;;;;15.37;69.01;98531.91;1646379;86;21087;-79
2022/11/05 10:44:55;;;;;;;35.20;13.58;;;;;;;15.47;68.06;98526.55;1640286;86;21067;-79
2022/11/05 10:47:53;;;;;;;32.65;13.10;;;;;;;15.49;67.13;98527.31;1638617;87;21075;-78
2022/11/05 10:50:26;;;;;;;31.02;13.45;;;;;;;15.60;68.14;98528.90;1642290;87;21063;-80
2022/11/05 10:53:16;;;;;;;33.57;14.70;;;;;;;15.65;66.74;98522.92;1628450;87;21083;-80
2022/11/05 10:55:50;;;;;;;33.70;13.83;;;;;;;15.67;66.99;98515.82;1628124;87;21150;-79
2022/11/05 10:58:24;;;;;;;25.68;12.33;;;;;;;15.73;67.19;98515.14;1646646;87;21078;-80
2022/11/05 11:00:57;;;;;;;31.40;12.93;;;;;;;15.82;66.21;98510.72;1650917;87;21558;-79
2022/11/05 11:03:50;;;;;;;31.93;14.30;;;;;;;15.88;66.24;98518.23;1637395;87;21063;-80
2022/11/05 11:06:31;;;;;;;29.45;14.07;;;;;;;15.89;66.10;98514.19;1627578;88;21053;-79
2022/11/05 11:09:02;;;;;;;27.55;12.58;;;;;;;15.93;65.30;98516.18;1630866;87;21890;-80
2022/11/05 11:11:37;;;;;;;34.23;13.70;;;;;;;16.00;65.18;98509.67;1642696;87;21055;-80
2022/11/05 11:14:17;;;;;;;28.50;14.45;;;;;;;16.09;65.48;98506.55;1633071;87;21070;-80
2022/11/05 11:16:49;;;;;;;34.67;14.23;;;;;;;16.22;65.71;98508.45;1630941;87;21075;-79
2022/11/05 11:19:34;;;;;;;34.88;15.28;;;;;;;16.24;63.39;98503.97;1640999;87;21496;-80
2022/11/05 11:22:12;;;;;;;30.68;13.65;;;;;;;16.29;63.71;98505.84;1627174;87;21055;-80
2022/11/05 11:24:48;;;;;;;32.48;15.28;;;;;;;16.40;63.77;98506.55;1620967;88;21061;-79
2022/11/05 11:27:29;;;;;;;29.02;13.65;;;;;;;16.48;64.04;98504.31;1628155;88;21019;-79
2022/11/05 11:30:00;;;;;;;34.73;13.58;;;;;;;16.52;62.07;98504.98;1632442;87;21063;-79
2022/11/05 11:32:37;;;;;;;32.65;14.10;;;;;;;16.49;63.81;98504.23;1629756;87;21133;-81
2022/11/05 11:35:08;;;;;;;29.60;13.83;;;;;;;16.56;63.26;98508.64;1628888;87;21104;-80
2022/11/05 11:37:40;;;;;;;31.77;15.00;;;;;;;16.53;63.92;98512.73;1628855;88;21092;-79
2022/11/05 11:40:21;;;;;;;28.85;13.88;;;;;;;16.57;63.39;98511.62;1631034;87;21075;-80
2022/11/05 11:42:53;;;;;;;31.17;15.58;;;;;;;16.53;63.59;98512.73;1648392;86;21930;-79
2022/11/05 11:45:29;;;;;;;28.92;13.43;;;;;;;16.40;62.77;98507.37;1658139;86;21062;-80
2022/11/05 11:48:03;;;;;;;42.70;14.70;;;;;;;16.41;62.24;98505.59;1654164;86;21091;-79
2022/11/05 11:50:41;;;;;;;35.10;14.10;;;;;;;16.36;62.49;98501.09;1664465;86;21063;-78
2022/11/05 11:53:22;;;;;;;31.68;13.80;;;;;;;16.32;62.22;98495.66;1664704;86;21541;-79
2022/11/05 11:56:19;;;;;;;35.13;14.73;;;;;;;16.28;63.18;98500.23;1663227;86;21067;-79
2022/11/05 11:58:54;;;;;;;32.65;13.93;;;;;;;16.29;63.44;98493.59;1668409;85;21023;-78
2022/11/05 12:01:38;;;;;;;33.28;14.40;;;;;;;16.26;63.05;98504.24;1648124;86;21024;-78
2022/11/05 12:04:40;;;;;;;28.70;13.60;;;;;;;16.28;63.84;98500.23;1673411;83;21405;-78
2022/11/05 12:07:25;;;;;;;40.52;15.78;;;;;;;16.34;63.81;98502.97;1693224;85;21054;-77
2022/11/05 12:10:13;;;;;;;32.20;14.00;;;;;;;16.32;63.99;98506.15;1676072;85;21034;-79
2022/11/05 12:13:04;;;;;;;33.73;13.28;;;;;;;16.36;63.59;98507.66;1672942;85;21067;-78
2022/11/05 12:15:37;;;;;;;31.02;14.18;;;;;;;16.39;63.90;98500.43;1663475;85;21093;-77
2022/11/05 12:18:09;;;;;;;28.95;13.90;;;;;;;16.44;64.02;98506.73;1659722;85;21023;-79
2022/11/05 12:20:54;;;;;;;41.25;15.20;;;;;;;16.44;63.35;98508.05;1671551;85;21019;-78
2022/11/05 12:23:49;;;;;;;34.33;14.93;;;;;;;16.40;63.86;98512.63;1678969;85;21058;-79
2022/11/05 12:26:54;;;;;;;31.90;15.35;;;;;;;16.46;64.28;98516.20;1664956;86;21031;-79
2022/11/05 12:29:52;;;;;;;29.25;14.28;;;;;;;16.51;64.34;98518.55;1682136;85;21098;-79
2022/11/05 12:32:54;;;;;;;29.23;14.15;;;;;;;16.60;64.30;98513.25;1665292;86;21066;-79
2022/11/05 12:35:44;;;;;;;29.40;14.53;;;;;;;16.63;63.88;98512.60;1641547;86;21067;-79
2022/11/05 12:38:51;;;;;;;28.65;15.15;;;;;;;16.69;64.00;98506.12;1670023;85;21098;-80
2022/11/05 12:42:09;;;;;;;33.15;14.87;;;;;;;16.79;63.92;98516.47;1667389;85;21063;-80